Time;durP1;ratioP1;P1;durP2;ratioP2;P2;SDS_P1;SDS_P2;PMS_P1;PMS_P2;Temp;Humidity;BMP_temperature;BMP_pressure;BME280_temperature;BME280_humidity;BME280_pressure;Samples;Min_cycle;Max_cycle;Signal;HPM_P1;HPM_P2
2023/10/29 00:02:04;;;;;;;;;;;;;;;-140.72;100.00;61544.63;5059079;28;19977;-72
2023/10/29 00:04:35;;;;;;;;;;;;;;;-140.72;100.00;61536.47;5060203;28;20413;-73
2023/10/29 00:07:00;;;;;;;;;;;;;;;-140.72;100.00;61463.28;5057746;28;19928;-73
2023/10/29 00:09:25;;;;;;;;;;;;;;;-140.72;100.00;61440.91;5065970;28;20385;-73
2023/10/29 00:11:50;;;;;;;;;;;;;;;-140.72;100.00;61377.84;5059553;28;19963;-73
2023/10/29 00:14:16;;;;;;;;;;;;;;;-140.72;100.00;61308.72;5058504;28;20097;-73
2023/10/29 00:16:41;;;;;;;;;;;;;;;-140.72;100.00;61239.56;5063019;28;20294;-73
2023/10/29 00:19:06;;;;;;;;;;;;;;;-140.72;100.00;61168.38;5061211;28;19928;-72
2023/10/29 00:21:34;;;;;;;;;;;;;;;-140.72;100.00;61121.59;5059963;28;20015;-73
2023/10/29 00:23:59;;;;;;;;;;;;;;;-140.72;100.00;61040.28;5061142;28;19963;-73
2023/10/29 00:26:24;;;;;;;;;;;;;;;-140.72;100.00;60979.25;5057072;28;20330;-72
2023/10/29 00:28:50;;;;;;;;;;;;;;;-140.72;100.00;60849.13;5065231;28;19921;-72
2023/10/29 00:31:15;;;;;;;;;;;;;;;-140.72;100.00;60800.31;5055095;28;19920;-73
2023/10/29 00:33:40;;;;;;;;;;;;;;;-140.72;100.00;60735.25;5063379;28;19924;-74
2023/10/29 00:36:06;;;;;;;;;;;;;;;-140.72;100.00;60580.72;5055784;28;19943;-73
2023/10/29 00:38:31;;;;;;;;;;;;;;;-140.72;100.00;60550.22;5059872;28;20434;-72
2023/10/29 00:40:56;;;;;;;;;;;;;;;-140.72;100.00;60442.44;5059574;28;19924;-72
2023/10/29 00:43:21;;;;;;;;;;;;;;;-140.72;100.00;60383.50;5061802;28;19973;-72
2023/10/29 00:45:51;;;;;;;;;;;;;;;-140.72;100.00;60312.31;5056544;28;19921;-72
2023/10/29 00:48:16;;;;;;;;;;;;;;;-140.72;100.00;60212.69;5062584;28;20056;-72
2023/10/29 00:50:42;;;;;;;;;;;;;;;-140.72;100.00;60098.84;5058551;28;20022;-72
2023/10/29 00:53:07;;;;;;;;;;;;;;;-140.72;100.00;60052.09;5061950;28;19928;-72
2023/10/29 00:55:33;;;;;;;;;;;;;;;-140.72;100.00;59962.63;5054719;28;19928;-72
2023/10/29 00:57:58;;;;;;;;;;;;;;;-140.72;100.00;59834.56;5060756;28;19995;-72
2023/10/29 01:00:23;;;;;;;;;;;;;;;-140.72;100.00;59749.19;5061068;28;19928;-72
2023/10/29 01:02:48;;;;;;;;;;;;;;;-140.72;100.00;59732.91;5085334;28;20271;-72
2023/10/29 01:05:14;;;;;;;;;;;;;;;-140.72;100.00;59682.09;5057252;28;19935;-72
2023/10/29 01:07:39;;;;;;;;;;;;;;;-140.72;100.00;59615.00;5059626;28;20290;-72
2023/10/29 01:10:04;;;;;;;;;;;;;;;-140.72;100.00;59578.41;5061808;28;19930;-72
2023/10/29 01:12:30;;;;;;;;;;;;;;;-140.72;100.00;59539.78;5052277;28;19960;-72
2023/10/29 01:14:55;;;;;;;;;;;;;;;-140.72;100.00;59509.31;5058654;28;19928;-72
2023/10/29 01:17:21;;;;;;;;;;;;;;;-140.72;100.00;59419.88;5061151;28;19924;-72
2023/10/29 01:19:46;;;;;;;;;;;;;;;-140.72;100.00;59381.25;5052612;28;20375;-72
2023/10/29 01:22:11;;;;;;;;;;;;;;;-140.72;100.00;59360.91;5041397;28;19921;-72
2023/10/29 01:24:38;;;;;;;;;;;;;;;-140.72;100.00;59259.28;5057257;28;20011;-72
2023/10/29 01:27:03;;;;;;;;;;;;;;;-140.72;100.00;59259.28;5058371;28;20385;-72
2023/10/29 01:29:28;;;;;;;;;;;;;;;-140.72;100.00;59263.34;5060033;28;20019;-72
2023/10/29 01:31:54;;;;;;;;;;;;;;;-140.72;100.00;59267.41;5047240;28;19955;-73
2023/10/29 01:34:19;;;;;;;;;;;;;;;-140.72;100.00;59291.81;5057913;28;19920;-72
2023/10/29 01:36:44;;;;;;;;;;;;;;;-140.72;100.00;59291.81;5059403;28;19927;-72
2023/10/29 01:39:09;;;;;;;;;;;;;;;-140.72;100.00;59273.50;5060712;28;19978;-72
2023/10/29 01:41:35;;;;;;;;;;;;;;;-140.72;100.00;59234.88;5064548;28;19926;-72
2023/10/29 01:44:00;;;;;;;;;;;;;;;-140.72;100.00;59143.41;5061911;28;19931;-72
2023/10/29 01:46:26;;;;;;;;;;;;;;;-140.72;100.00;59177.97;5061173;28;19920;-72
2023/10/29 01:48:51;;;;;;;;;;;;;;;-140.72;100.00;59068.22;5063065;28;19925;-72
2023/10/29 01:51:17;;;;;;;;;;;;;;;-140.72;100.00;59027.56;5061423;28;19951;-72
2023/10/29 01:53:42;;;;;;;;;;;;;;;-140.72;100.00;59051.97;5051026;28;19944;-73
2023/10/29 01:56:08;;;;;;;;;;;;;;;-140.72;100.00;59043.81;5062656;28;19924;-72
2023/10/29 01:58:34;;;;;;;;;;;;;;;-140.72;100.00;59088.53;5054147;28;20323;-72
2023/10/29 02:00:59;;;;;;;;;;;;;;;-140.72;100.00;58990.97;5051125;28;19928;-72
2023/10/29 02:03:25;;;;;;;;;;;;;;;-140.72;100.00;58995.03;5057377;28;19920;-73
2023/10/29 02:05:50;;;;;;;;;;;;;;;-140.72;100.00;59157.66;5059796;28;19920;-72
2023/10/29 02:08:17;;;;;;;;;;;;;;;-140.72;100.00;59308.06;5054061;28;20302;-73
2023/10/29 02:10:42;;;;;;;;;;;;;;;-140.72;100.00;59413.75;5057972;28;19968;-72
2023/10/29 02:13:07;;;;;;;;;;;;;;;-140.72;100.00;59454.41;5070267;28;19971;-73
2023/10/29 02:15:32;;;;;;;;;;;;;;;-140.72;100.00;59405.63;5049694;28;20304;-73
2023/10/29 02:17:58;;;;;;;;;;;;;;;-140.72;100.00;59495.06;5054803;28;19927;-72
2023/10/29 02:20:23;;;;;;;;;;;;;;;-140.72;100.00;59560.13;5056336;28;20015;-72
2023/10/29 02:22:48;;;;;;;;;;;;;;;-140.72;100.00;59653.63;5056228;28;20023;-73
2023/10/29 02:25:13;;;;;;;;;;;;;;;-140.72;100.00;59686.16;5055431;28;19972;-73
2023/10/29 02:27:38;;;;;;;;;;;;;;;-140.72;100.00;59779.66;5056173;28;20107;-73
2023/10/29 02:30:04;;;;;;;;;;;;;;;-140.72;100.00;59824.41;5052623;28;20020;-73
2023/10/29 02:32:29;;;;;;;;;;;;;;;-140.72;100.00;59905.72;5055396;28;19931;-72
2023/10/29 02:34:55;;;;;;;;;;;;;;;-140.72;100.00;59863.03;5065495;28;20359;-72
2023/10/29 02:37:20;;;;;;;;;;;;;;;-140.72;100.00;59907.75;5055439;28;19929;-72
2023/10/29 02:39:45;;;;;;;;;;;;;;;-140.72;100.00;59909.78;5057108;28;20298;-73
2023/10/29 02:42:14;;;;;;;;;;;;;;;-140.72;100.00;59917.91;5062923;28;20370;-73
2023/10/29 02:44:39;;;;;;;;;;;;;;;-140.72;100.00;59944.34;5059673;28;19926;-73
2023/10/29 02:47:04;;;;;;;;;;;;;;;-140.72;100.00;59932.13;5053202;28;20259;-73
2023/10/29 02:49:30;;;;;;;;;;;;;;;-140.72;100.00;60003.28;5078987;28;20367;-74
2023/10/29 02:51:55;;;;;;;;;;;;;;;-140.72;100.00;60056.16;5057561;28;20299;-73
2023/10/29 02:54:21;;;;;;;;;;;;;;;-140.72;100.00;60096.81;5046575;28;19924;-73
2023/10/29 02:56:46;;;;;;;;;;;;;;;-140.72;100.00;60139.50;5055170;28;19928;-73
2023/10/29 02:59:11;;;;;;;;;;;;;;;-140.72;100.00;60206.59;5060189;28;19927;-73
2023/10/29 03:01:36;;;;;;;;;;;;;;;-140.72;100.00;60261.50;5056030;28;19920;-73
2023/10/29 03:04:04;;;;;;;;;;;;;;;-140.72;100.00;60287.94;5060751;28;19920;-73
2023/10/29 03:06:31;;;;;;;;;;;;;;;-140.72;100.00;60375.34;5056686;28;20006;-73
2023/10/29 03:08:56;;;;;;;;;;;;;;;-140.72;100.00;60373.31;5050598;28;19920;-73
2023/10/29 03:11:21;;;;;;;;;;;;;;;-140.72;100.00;60418.06;5059907;28;20244;-73
2023/10/29 03:13:46;;;;;;;;;;;;;;;-140.72;100.00;60446.53;5060503;28;20065;-73
2023/10/29 03:16:12;;;;;;;;;;;;;;;-140.72;100.00;60462.78;5057686;28;20050;-73
2023/10/29 03:18:37;;;;;;;;;;;;;;;-140.72;100.00;60468.88;5056837;28;19928;-73
2023/10/29 03:21:02;;;;;;;;;;;;;;;-140.72;100.00;60416.03;5058389;28;20097;-73
2023/10/29 03:23:28;;;;;;;;;;;;;;;-140.72;100.00;60454.66;5057636;28;19925;-73
2023/10/29 03:25:53;;;;;;;;;;;;;;;-140.72;100.00;60430.25;5059719;28;20057;-73
2023/10/29 03:28:19;;;;;;;;;;;;;;;-140.72;100.00;60353.00;5061143;28;20026;-73
2023/10/29 03:30:44;;;;;;;;;;;;;;;-140.72;100.00;60287.94;5057344;28;19932;-73
2023/10/29 03:33:09;;;;;;;;;;;;;;;-140.72;100.00;60214.72;5054824;28;19990;-73
2023/10/29 03:35:34;;;;;;;;;;;;;;;-140.72;100.00;60182.22;5051725;28;19943;-72
2023/10/29 03:41:02;;;;;;;;;;;;;;;-140.72;100.00;60037.84;5050088;28;19940;-73
2023/10/29 03:43:30;;;;;;;;;;;;;;;-140.72;100.00;59982.97;5051248;28;19921;-73
2023/10/29 03:45:55;;;;;;;;;;;;;;;-140.72;100.00;59854.88;5050336;28;20046;-73
2023/10/29 03:48:20;;;;;;;;;;;;;;;-140.72;100.00;59779.66;5058222;28;20011;-73
2023/10/29 03:50:45;;;;;;;;;;;;;;;-140.72;100.00;59673.97;5050488;28;19917;-73
2023/10/29 03:53:11;;;;;;;;;;;;;;;-140.72;100.00;59604.84;5047630;28;20290;-73
2023/10/29 03:55:36;;;;;;;;;;;;;;;-140.72;100.00;59517.44;5052477;28;19964;-72
2023/10/29 03:58:12;;;;;;;;;;;;;;;-140.72;100.00;59391.41;5061536;28;19917;-72
2023/10/29 04:00:37;;;;;;;;;;;;;;;-140.72;100.00;59293.84;5053390;28;19920;-72
2023/10/29 04:03:02;;;;;;;;;;;;;;;-140.72;100.00;59204.41;5051975;28;20298;-72
2023/10/29 04:05:29;;;;;;;;;;;;;;;-140.72;100.00;59108.88;5050945;28;19971;-72
2023/10/29 04:07:54;;;;;;;;;;;;;;;-140.72;100.00;59039.75;5054501;28;19924;-73
2023/10/29 04:10:19;;;;;;;;;;;;;;;-140.72;100.00;58999.13;5053032;28;20035;-73
2023/10/29 04:12:44;;;;;;;;;;;;;;;-140.72;100.00;58952.38;5054054;28;19960;-72
2023/10/29 04:15:11;;;;;;;;;;;;;;;-140.72;100.00;58850.75;5049411;28;19932;-72
2023/10/29 04:17:37;;;;;;;;;;;;;;;-140.72;100.00;58779.59;5051553;28;19917;-72
2023/10/29 04:20:02;;;;;;;;;;;;;;;-140.72;100.00;58736.94;5053778;28;20115;-72
2023/10/29 04:22:27;;;;;;;;;;;;;;;-140.72;100.00;58712.53;5054365;28;19916;-73
2023/10/29 04:24:53;;;;;;;;;;;;;;;-140.72;100.00;58598.72;5055683;28;20278;-73
2023/10/29 04:27:18;;;;;;;;;;;;;;;-140.72;100.00;58552.00;5056132;28;20371;-73
2023/10/29 04:29:43;;;;;;;;;;;;;;;-140.72;100.00;58519.47;5051699;28;19925;-73
2023/10/29 04:32:08;;;;;;;;;;;;;;;-140.72;100.00;58379.25;5051066;28;20015;-73
2023/10/29 04:34:34;;;;;;;;;;;;;;;-140.72;100.00;58300.00;5053889;28;19920;-72
2023/10/29 04:36:59;;;;;;;;;;;;;;;-140.72;100.00;58224.81;5053594;28;19992;-72
2023/10/29 04:39:24;;;;;;;;;;;;;;;-140.72;100.00;58214.66;5053059;28;19920;-72
2023/10/29 04:41:49;;;;;;;;;;;;;;;-140.72;100.00;58291.88;5046656;28;19936;-72
2023/10/29 04:44:15;;;;;;;;;;;;;;;-140.72;100.00;58464.59;5054218;28;19931;-73
2023/10/29 04:46:40;;;;;;;;;;;;;;;-140.72;100.00;58572.31;5052230;28;19923;-73
2023/10/29 04:49:05;;;;;;;;;;;;;;;-140.72;100.00;58726.75;5046975;28;19928;-74
2023/10/29 04:51:30;;;;;;;;;;;;;;;-140.72;100.00;58816.19;5034718;28;19997;-73
2023/10/29 04:53:56;;;;;;;;;;;;;;;-140.72;100.00;58828.38;5044711;28;21818;-73
2023/10/29 04:56:21;;;;;;;;;;;;;;;-140.72;100.00;58875.13;5038893;28;20359;-72
2023/10/29 04:58:46;;;;;;;;;;;;;;;-140.72;100.00;58923.91;5037502;28;19918;-73
2023/10/29 05:01:11;;;;;;;;;;;;;;;-140.72;100.00;58862.94;5039511;28;20020;-73
2023/10/29 05:03:38;;;;;;;;;;;;;;;-140.72;100.00;58883.25;5019336;28;19928;-73
2023/10/29 05:06:22;;;;;;;;;;;;;;;-140.72;100.00;58873.09;5031021;28;19921;-73
2023/10/29 05:08:48;;;;;;;;;;;;;;;-140.72;100.00;58824.31;5042523;28;20407;-72
2023/10/29 05:11:13;;;;;;;;;;;;;;;-140.72;100.00;58840.59;5032757;28;19943;-73
2023/10/29 05:13:39;;;;;;;;;;;;;;;-140.72;100.00;58775.53;5035604;28;20000;-73
2023/10/29 05:16:04;;;;;;;;;;;;;;;-140.72;100.00;58712.53;5041987;28;19936;-72
2023/10/29 05:18:29;;;;;;;;;;;;;;;-140.72;100.00;58667.81;5029953;28;19925;-72
2023/10/29 05:20:55;;;;;;;;;;;;;;;-140.72;100.00;58617.03;5032735;28;20342;-73
2023/10/29 05:23:20;;;;;;;;;;;;;;;-140.72;100.00;58515.41;5027223;28;20426;-74
2023/10/29 05:25:45;;;;;;;;;;;;;;;-140.72;100.00;58478.81;5019141;28;19922;-73
2023/10/29 05:28:10;;;;;;;;;;;;;;;-140.72;100.00;58411.75;5033293;28;19967;-74
2023/10/29 05:30:42;;;;;;;;;;;;;;;-140.72;100.00;58385.34;5029899;28;19928;-73
2023/10/29 05:33:07;;;;;;;;;;;;;;;-140.72;100.00;58371.13;5034392;28;19975;-72
2023/10/29 05:35:33;;;;;;;;;;;;;;;-140.72;100.00;58283.75;5040076;28;20323;-73
2023/10/29 05:37:58;;;;;;;;;;;;;;;-140.72;100.00;58326.41;5040882;28;20376;-72
2023/10/29 05:40:23;;;;;;;;;;;;;;;-140.72;100.00;58302.03;5035195;28;20332;-73
2023/10/29 05:42:48;;;;;;;;;;;;;;;-140.72;100.00;58206.50;5037644;28;20394;-73
2023/10/29 05:45:18;;;;;;;;;;;;;;;-140.72;100.00;58202.44;5033968;28;19983;-72
2023/10/29 05:47:43;;;;;;;;;;;;;;;-140.72;100.00;58141.50;5031535;28;20018;-72
2023/10/29 05:50:09;;;;;;;;;;;;;;;-140.72;100.00;58096.78;5050797;28;20375;-71
2023/10/29 05:52:34;;;;;;;;;;;;;;;-140.72;100.00;58052.09;5059384;28;19931;-71
2023/10/29 05:55:02;;;;;;;;;;;;;;;-140.72;100.00;58025.66;5051315;28;19920;-71
2023/10/29 05:57:28;;;;;;;;;;;;;;;-140.72;100.00;58082.56;5050786;28;20003;-71
2023/10/29 05:59:53;;;;;;;;;;;;;;;-140.72;100.00;58076.47;5054070;28;20090;-71
2023/10/29 06:02:18;;;;;;;;;;;;;;;-140.72;100.00;58035.81;5050246;28;19983;-73
2023/10/29 06:04:43;;;;;;;;;;;;;;;-140.72;100.00;58076.47;5054328;28;19932;-72
2023/10/29 06:07:09;;;;;;;;;;;;;;;-140.72;100.00;58119.13;5052665;28;19921;-71
2023/10/29 06:09:34;;;;;;;;;;;;;;;-140.72;100.00;58100.84;5052945;28;19936;-73
2023/10/29 06:11:59;;;;;;;;;;;;;;;-140.72;100.00;58088.66;5050245;28;19928;-72
2023/10/29 06:14:24;;;;;;;;;;;;;;;-140.72;100.00;58143.53;5056319;28;20324;-72
2023/10/29 06:16:56;;;;;;;;;;;;;;;-140.72;100.00;58186.19;5053998;28;20386;-72
2023/10/29 06:19:21;;;;;;;;;;;;;;;-140.72;100.00;58184.16;5045664;28;20394;-72
2023/10/29 06:21:46;;;;;;;;;;;;;;;-140.72;100.00;58247.16;5049306;28;19921;-72
2023/10/29 06:24:11;;;;;;;;;;;;;;;-140.72;100.00;58243.09;5048898;28;19920;-72
2023/10/29 06:26:36;;;;;;;;;;;;;;;-140.72;100.00;58247.16;5052504;28;19920;-72
2023/10/29 06:29:02;;;;;;;;;;;;;;;-140.72;100.00;58287.81;5042089;28;19920;-78
2023/10/29 06:31:28;;;;;;;;;;;;;;;-140.72;100.00;58328.44;5047535;28;19927;-73
2023/10/29 06:33:53;;;;;;;;;;;;;;;-140.72;100.00;58348.75;5047542;28;19925;-72
2023/10/29 06:36:19;;;;;;;;;;;;;;;-140.72;100.00;58417.84;5047599;28;19921;-74
2023/10/29 06:38:44;;;;;;;;;;;;;;;-140.72;100.00;58448.34;5050742;28;20035;-74
2023/10/29 06:41:16;;;;;;;;;;;;;;;-140.72;100.00;58446.31;5047833;28;20271;-75
2023/10/29 06:43:42;;;;;;;;;;;;;;;-140.72;100.00;58476.78;5053464;28;19920;-72
2023/10/29 06:46:07;;;;;;;;;;;;;;;-140.72;100.00;58525.56;5045180;28;19917;-75
2023/10/29 06:48:32;;;;;;;;;;;;;;;-140.72;100.00;58588.56;5042869;28;20286;-73
2023/10/29 06:50:57;;;;;;;;;;;;;;;-140.72;100.00;58606.84;5052748;28;19971;-72
2023/10/29 06:53:22;;;;;;;;;;;;;;;-140.72;100.00;58629.22;5053079;28;20367;-73
2023/10/29 06:55:50;;;;;;;;;;;;;;;-140.72;100.00;58637.34;5063409;28;19924;-73
2023/10/29 06:58:15;;;;;;;;;;;;;;;-140.72;100.00;58682.06;5056871;28;19920;-72
2023/10/29 07:00:40;;;;;;;;;;;;;;;-140.72;100.00;58667.81;5050428;28;20437;-72
2023/10/29 07:03:07;;;;;;;;;;;;;;;-140.72;100.00;58665.78;5055818;28;19920;-74
2023/10/29 07:05:32;;;;;;;;;;;;;;;-140.72;100.00;58667.81;5076919;28;19935;-71
2023/10/29 07:07:58;;;;;;;;;;;;;;;-140.72;100.00;58641.41;5053402;28;19924;-73
2023/10/29 07:10:24;;;;;;;;;;;;;;;-140.72;100.00;58651.56;5060063;28;19924;-73
2023/10/29 07:12:49;;;;;;;;;;;;;;;-140.72;100.00;58647.50;5055193;28;21231;-72
2023/10/29 07:15:14;;;;;;;;;;;;;;;-140.72;100.00;58645.47;5054406;28;19921;-71
2023/10/29 07:17:40;;;;;;;;;;;;;;;-140.72;100.00;58653.59;5050584;28;20347;-72
2023/10/29 07:20:05;;;;;;;;;;;;;;;-140.72;100.00;58710.50;5059261;28;19921;-73
2023/10/29 07:22:30;;;;;;;;;;;;;;;-140.72;100.00;58710.50;5056643;28;19920;-76
2023/10/29 07:24:56;;;;;;;;;;;;;;;-140.72;100.00;58755.22;5052554;28;19948;-77
2023/10/29 07:27:21;;;;;;;;;;;;;;;-140.72;100.00;58669.84;5044433;28;19921;-73
2023/10/29 07:29:46;;;;;;;;;;;;;;;-140.72;100.00;58673.94;5055073;28;19925;-75
2023/10/29 07:32:12;;;;;;;;;;;;;;;-140.72;100.00;58649.53;5067793;28;19921;-75
2023/10/29 07:34:37;;;;;;;;;;;;;;;-140.72;100.00;58578.41;5065161;28;19925;-74
2023/10/29 07:37:03;;;;;;;;;;;;;;;-140.72;100.00;58515.41;5050420;28;19932;-73
2023/10/29 07:39:28;;;;;;;;;;;;;;;-140.72;100.00;58442.25;5053724;28;19929;-72
2023/10/29 07:41:54;;;;;;;;;;;;;;;-140.72;100.00;58356.91;5055920;28;19984;-72
2023/10/29 07:44:19;;;;;;;;;;;;;;;-140.72;100.00;58336.56;5051693;28;20475;-72
2023/10/29 07:46:44;;;;;;;;;;;;;;;-140.72;100.00;58291.88;5070962;28;20386;-73
2023/10/29 07:49:09;;;;;;;;;;;;;;;-140.72;100.00;58247.16;5053989;28;19924;-72
2023/10/29 07:51:34;;;;;;;;;;;;;;;-140.72;100.00;58245.13;5055943;28;19999;-72
2023/10/29 07:54:01;;;;;;;;;;;;;;;-140.72;100.00;58275.59;5063676;28;20047;-72
2023/10/29 07:56:26;;;;;;;;;;;;;;;-140.72;100.00;58216.69;5060880;28;19931;-72
2023/10/29 07:58:51;;;;;;;;;;;;;;;-140.72;100.00;58259.34;5062091;28;19921;-73
2023/10/29 08:01:17;;;;;;;;;;;;;;;-140.72;100.00;58275.59;5053340;28;19928;-72
2023/10/29 08:03:43;;;;;;;;;;;;;;;-140.72;100.00;58328.44;5057207;28;19924;-72
2023/10/29 08:06:09;;;;;;;;;;;;;;;-140.72;100.00;58403.63;5055821;28;20359;-72
2023/10/29 08:08:34;;;;;;;;;;;;;;;-140.72;100.00;58385.34;5079335;28;19963;-72
2023/10/29 08:10:59;;;;;;;;;;;;;;;-140.72;100.00;58428.03;5063093;28;20294;-72
2023/10/29 08:13:25;;;;;;;;;;;;;;;-140.72;100.00;58365.03;5054949;28;19921;-72
2023/10/29 08:15:50;;;;;;;;;;;;;;;-140.72;100.00;58360.97;5055684;28;20277;-72
2023/10/29 08:18:15;;;;;;;;;;;;;;;-140.72;100.00;58350.78;5058413;28;20290;-71
2023/10/29 08:20:41;;;;;;;;;;;;;;;-140.72;100.00;58324.38;5057324;28;20275;-73
2023/10/29 08:23:06;;;;;;;;;;;;;;;-140.72;100.00;58304.06;5057110;28;20252;-72
2023/10/29 08:25:32;;;;;;;;;;;;;;;-140.72;100.00;58344.69;5063373;28;20074;-73
2023/10/29 08:27:58;;;;;;;;;;;;;;;-140.72;100.00;58409.72;5056806;28;19985;-72
2023/10/29 08:30:23;;;;;;;;;;;;;;;-140.72;100.00;58334.53;5053632;28;20409;-72
2023/10/29 08:32:48;;;;;;;;;;;;;;;-140.72;100.00;58306.09;5060802;28;20369;-76
2023/10/29 08:35:13;;;;;;;;;;;;;;;-140.72;100.00;58245.13;5058491;28;19924;-71
2023/10/29 08:37:39;;;;;;;;;;;;;;;-140.72;100.00;58218.72;5054857;28;19943;-71
2023/10/29 08:40:04;;;;;;;;;;;;;;;-140.72;100.00;58080.53;5072350;28;20306;-78
2023/10/29 08:42:30;;;;;;;;;;;;;;;-140.72;100.00;57985.03;5056484;28;19925;-73
2023/10/29 08:44:56;;;;;;;;;;;;;;;-140.72;100.00;57865.13;5053884;28;20011;-73
2023/10/29 08:47:21;;;;;;;;;;;;;;;-140.72;100.00;57779.81;5060232;28;19970;-73
2023/10/29 08:49:47;;;;;;;;;;;;;;;-140.72;100.00;57661.94;5058661;28;19963;-73
2023/10/29 08:52:13;;;;;;;;;;;;;;;-140.72;100.00;57601.00;5056496;28;19921;-73
2023/10/29 08:54:39;;;;;;;;;;;;;;;-140.72;100.00;57576.63;5050523;28;20388;-72
2023/10/29 08:57:04;;;;;;;;;;;;;;;-140.72;100.00;57434.41;5054446;28;19976;-72
2023/10/29 08:59:29;;;;;;;;;;;;;;;-140.72;100.00;57422.22;5054832;28;20332;-74
2023/10/29 09:01:55;;;;;;;;;;;;;;;-140.72;100.00;57332.81;5047379;28;20079;-72
2023/10/29 09:04:22;;;;;;;;;;;;;;;-140.72;100.00;57259.66;5052882;28;19973;-74
2023/10/29 09:06:47;;;;;;;;;;;;;;;-140.72;100.00;57243.41;5049616;28;20299;-73
2023/10/29 09:09:12;;;;;;;;;;;;;;;-140.72;100.00;57198.72;5059152;28;19921;-74
2023/10/29 09:11:38;;;;;;;;;;;;;;;-140.72;100.00;57204.81;5054786;28;20011;-72
2023/10/29 09:14:04;;;;;;;;;;;;;;;-140.72;100.00;57160.13;5050973;28;19921;-76
2023/10/29 09:16:29;;;;;;;;;;;;;;;-140.72;100.00;57208.88;5050828;28;19920;-72
2023/10/29 09:18:55;;;;;;;;;;;;;;;-140.72;100.00;57275.94;5051300;28;19990;-72
2023/10/29 09:21:20;;;;;;;;;;;;;;;-140.72;100.00;57261.69;5057804;28;19990;-72
2023/10/29 09:23:45;;;;;;;;;;;;;;;-140.72;100.00;57275.94;5065141;28;20441;-73
2023/10/29 09:26:10;;;;;;;;;;;;;;;-140.72;100.00;57290.16;5054735;28;20340;-71
2023/10/29 09:28:36;;;;;;;;;;;;;;;-140.72;100.00;57257.63;5051852;28;19921;-70
2023/10/29 09:31:03;;;;;;;;;;;;;;;-140.72;100.00;57280.00;5060813;28;19916;-71
2023/10/29 09:33:28;;;;;;;;;;;;;;;-140.72;100.00;57294.22;5052428;28;20264;-70
2023/10/29 09:35:54;;;;;;;;;;;;;;;-140.72;100.00;57310.47;5052378;28;19931;-69
2023/10/29 09:38:20;;;;;;;;;;;;;;;-140.72;100.00;57282.03;5052625;28;20125;-70
2023/10/29 09:40:46;;;;;;;;;;;;;;;-140.72;100.00;57275.94;5047486;28;19956;-70
2023/10/29 09:43:13;;;;;;;;;;;;;;;-140.72;100.00;57304.38;5049859;28;20267;-70
2023/10/29 09:45:45;;;;;;;;;;;;;;;-140.72;100.00;57273.91;5054079;28;19979;-70
2023/10/29 09:48:11;;;;;;;;;;;;;;;-140.72;100.00;57269.84;5050956;28;19921;-71
2023/10/29 09:50:37;;;;;;;;;;;;;;;-140.72;100.00;57269.84;5045054;28;20312;-71
2023/10/29 09:53:03;;;;;;;;;;;;;;;-140.72;100.00;57259.66;5038136;28;19929;-72
2023/10/29 09:55:29;;;;;;;;;;;;;;;-140.72;100.00;57223.09;5035283;28;19920;-70
2023/10/29 09:57:54;;;;;;;;;;;;;;;-140.72;100.00;57233.25;5035706;28;19929;-71
2023/10/29 10:00:19;;;;;;;;;;;;;;;-140.72;100.00;57202.78;5038987;28;19927;-73
2023/10/29 10:02:57;;;;;;;;;;;;;;;-140.72;100.00;57178.41;5042113;28;19968;-73
2023/10/29 10:05:24;;;;;;;;;;;;;;;-140.72;100.00;57182.47;5016269;28;20000;-76
2023/10/29 10:07:52;;;;;;;;;;;;;;;-140.72;100.00;57170.28;5038631;28;20004;-73
2023/10/29 10:10:19;;;;;;;;;;;;;;;-140.72;100.00;57080.91;5037374;28;20275;-74
2023/10/29 10:12:45;;;;;;;;;;;;;;;-140.72;100.00;57056.50;5019088;28;19964;-72
2023/10/29 10:15:11;;;;;;;;;;;;;;;-140.72;100.00;57113.41;5032686;28;19921;-71
2023/10/29 10:17:36;;;;;;;;;;;;;;;-140.72;100.00;57082.94;5051707;28;19921;-72
2023/10/29 10:20:11;;;;;;;;;;;;;;;-140.72;100.00;57084.97;5027740;28;19921;-71
2023/10/29 10:22:36;;;;;;;;;;;;;;;-140.72;100.00;57024.00;5023213;28;20394;-73
2023/10/29 10:25:18;;;;;;;;;;;;;;;-140.72;100.00;56942.75;5030666;28;19921;-74
2023/10/29 10:27:49;;;;;;;;;;;;;;;-140.72;100.00;56857.44;5035155;28;20002;-72
2023/10/29 10:30:24;;;;;;;;;;;;;;;-140.72;100.00;56837.13;5036511;28;20019;-75
2023/10/29 10:32:49;;;;;;;;;;;;;;;-140.72;100.00;56790.41;5040299;28;19956;-74
2023/10/29 10:35:14;;;;;;;;;;;;;;;-140.72;100.00;56788.38;5016443;28;19972;-78
2023/10/29 10:37:54;;;;;;;;;;;;;;;-140.72;100.00;56786.34;5035395;28;19925;-73
2023/10/29 10:40:26;;;;;;;;;;;;;;;-140.72;100.00;56759.94;5029505;28;19921;-75
2023/10/29 10:42:55;;;;;;;;;;;;;;;-140.72;100.00;56719.31;5045237;28;19947;-75
2023/10/29 10:45:26;;;;;;;;;;;;;;;-140.72;100.00;56652.28;5033832;28;19944;-78
2023/10/29 10:47:58;;;;;;;;;;;;;;;-140.72;100.00;56692.91;5034455;28;19925;-75
2023/10/29 10:50:24;;;;;;;;;;;;;;;-140.72;100.00;56589.28;5017120;28;20350;-80
2023/10/29 10:52:50;;;;;;;;;;;;;;;-140.72;100.00;56566.94;5036740;28;19979;-77
2023/10/29 10:55:15;;;;;;;;;;;;;;;-140.72;100.00;56540.53;5035856;28;19982;-75
2023/10/29 10:57:44;;;;;;;;;;;;;;;-140.72;100.00;56573.03;5039785;28;19965;-74
2023/10/29 11:00:10;;;;;;;;;;;;;;;-140.72;100.00;56660.41;5033243;28;20468;-75
2023/10/29 11:02:37;;;;;;;;;;;;;;;-140.72;100.00;56629.91;5040729;28;19981;-77
2023/10/29 11:05:04;;;;;;;;;;;;;;;-140.72;100.00;56638.03;5032570;28;19929;-75
2023/10/29 11:07:31;;;;;;;;;;;;;;;-140.72;100.00;56605.53;5021812;28;20580;-78
2023/10/29 11:09:58;;;;;;;;;;;;;;;-140.72;100.00;56682.75;5031715;28;19922;-73
2023/10/29 11:12:24;;;;;;;;;;;;;;;-140.72;100.00;56660.41;5036375;28;19925;-72
2023/10/29 11:15:08;;;;;;;;;;;;;;;-140.72;100.00;56658.38;5039207;28;19928;-73
2023/10/29 11:18:00;;;;;;;;;;;;;;;-140.72;100.00;56688.84;5038286;28;19921;-75
2023/10/29 11:20:46;;;;;;;;;;;;;;;-140.72;100.00;56715.25;5022116;28;20323;-73
2023/10/29 11:23:33;;;;;;;;;;;;;;;-140.72;100.00;56739.63;5034934;28;19972;-80
2023/10/29 11:26:16;;;;;;;;;;;;;;;-140.72;100.00;56735.56;5037441;28;19931;-75
2023/10/29 11:28:43;;;;;;;;;;;;;;;-140.72;100.00;56707.13;5027633;28;19929;-77
2023/10/29 11:31:15;;;;;;;;;;;;;;;-140.72;100.00;56707.13;5039648;28;19920;-76
2023/10/29 11:33:48;;;;;;;;;;;;;;;-140.72;100.00;56666.50;5042611;28;19932;-74
2023/10/29 11:36:29;;;;;;;;;;;;;;;-140.72;100.00;56646.19;5032787;28;20387;-75
2023/10/29 11:39:14;;;;;;;;;;;;;;;-140.72;100.00;56617.72;5046166;28;19939;-76
2023/10/29 11:41:40;;;;;;;;;;;;;;;-140.72;100.00;56603.53;5047679;28;19921;-77
2023/10/29 11:44:18;;;;;;;;;;;;;;;-140.72;100.00;56520.22;5036074;28;19933;-77
2023/10/29 11:46:58;;;;;;;;;;;;;;;-140.72;100.00;56587.25;5045168;28;19944;-77
2023/10/29 11:49:24;;;;;;;;;;;;;;;-140.72;100.00;56585.22;5048852;28;19928;-76
2023/10/29 11:51:56;;;;;;;;;;;;;;;-140.72;100.00;56613.66;5057170;28;19921;-75
2023/10/29 11:54:24;;;;;;;;;;;;;;;-140.72;100.00;56603.53;5061981;28;20049;-71
2023/10/29 11:56:50;;;;;;;;;;;;;;;-140.72;100.00;56625.84;5050589;28;19920;-74
2023/10/29 11:59:15;;;;;;;;;;;;;;;-140.72;100.00;56634.00;5062338;28;19946;-73
2023/10/29 12:01:44;;;;;;;;;;;;;;;-140.72;100.00;56654.31;5060677;28;19921;-75
2023/10/29 12:04:09;;;;;;;;;;;;;;;-140.72;100.00;56721.34;5060140;28;20001;-73
2023/10/29 12:06:54;;;;;;;;;;;;;;;-140.72;100.00;56670.56;5061827;28;19968;-74
2023/10/29 12:09:21;;;;;;;;;;;;;;;-140.72;100.00;56715.25;5063694;28;19921;-73
2023/10/29 12:11:48;;;;;;;;;;;;;;;-140.72;100.00;56660.41;5066790;28;19920;-74
2023/10/29 12:14:14;;;;;;;;;;;;;;;-140.72;100.00;56642.09;5055167;28;19933;-73
2023/10/29 12:16:39;;;;;;;;;;;;;;;-140.72;100.00;56638.03;5057137;28;19927;-73
2023/10/29 12:19:04;;;;;;;;;;;;;;;-140.72;100.00;56556.78;5053058;28;19922;-72